TimeCST,TemperatureF,Dew PointF,Humidity,Sea Level PressureIn,VisibilityMPH,Wind Direction,Wind SpeedMPH,Gust SpeedMPH,PrecipitationIn,Events,Conditions,WindDirDegrees,DateUTC
12:14 AM,1.4,-2.2,85,29.94,7.0,SSE,10.4,-,N/A,,Overcast,150,2013-01-25 06:14:00
12:34 AM,3.2,-2.2,78,29.92,2.5,SSE,9.2,-,N/A,Snow,Light Snow,150,2013-01-25 06:34:00
12:54 AM,3.2,-2.2,78,29.91,1.8,SSE,9.2,-,N/A,Snow,Light Snow,150,2013-01-25 06:54:00
1:14 AM,3.2,-2.2,78,29.90,4.0,SE,9.2,-,N/A,Snow,Light Snow,140,2013-01-25 07:14:00
1:33 AM,3.2,-2.2,78,29.88,10.0,SE,9.2,-,N/A,,Overcast,140,2013-01-25 07:33:00
1:54 AM,3.2,-2.2,78,29.87,7.0,SE,8.1,-,N/A,,Overcast,140,2013-01-25 07:54:00
2:14 AM,3.2,-2.2,78,29.86,5.0,SE,8.1,-,N/A,Snow,Light Snow,140,2013-01-25 08:14:00
2:34 AM,3.2,-2.2,78,29.85,5.0,SE,6.9,-,N/A,Snow,Light Snow,130,2013-01-25 08:34:00
2:54 AM,3.2,-2.2,78,29.85,4.0,SE,4.6,-,N/A,Snow,Light Snow,130,2013-01-25 08:54:00
3:14 AM,3.2,-0.4,85,29.85,1.5,ESE,4.6,-,N/A,Snow,Light Snow,110,2013-01-25 09:14:00
3:34 AM,3.2,-0.4,85,29.84,1.0,ESE,4.6,-,0.01,Snow,Snow,110,2013-01-25 09:34:00
3:54 AM,3.2,-0.4,85,29.84,0.5,East,3.5,-,0.01,Snow,Snow,90,2013-01-25 09:54:00
4:14 AM,3.2,-0.4,85,29.84,1.0,East,4.6,-,N/A,Snow,Snow,80,2013-01-25 10:14:00
4:34 AM,3.2,-0.4,85,29.83,1.5,East,4.6,-,N/A,Snow,Light Snow,80,2013-01-25 10:34:00
4:54 AM,3.2,-0.4,85,29.83,1.8,ENE,4.6,-,N/A,Snow,Light Snow,60,2013-01-25 10:54:00
5:14 AM,3.2,-0.4,85,29.84,4.0,NE,6.9,-,N/A,Snow,Light Snow,40,2013-01-25 11:14:00
5:34 AM,3.2,-0.4,85,29.85,7.0,NNE,6.9,-,N/A,Snow,Light Snow,30,2013-01-25 11:34:00
5:54 AM,1.4,-2.2,85,29.86,7.0,NNE,8.1,-,N/A,Snow,Light Snow,20,2013-01-25 11:54:00
6:14 AM,1.4,-2.2,85,29.87,5.0,NNE,8.1,-,N/A,Snow,Light Snow,30,2013-01-25 12:14:00
6:34 AM,-0.4,-4.0,85,29.89,7.0,North,8.1,-,N/A,Snow,Light Snow,10,2013-01-25 12:34:00
6:54 AM,-0.4,-5.8,78,29.90,5.0,North,8.1,-,N/A,Snow,Light Snow,10,2013-01-25 12:54:00
7:34 AM,-2.2,-7.6,78,29.93,5.0,NNW,5.8,-,N/A,Snow,Light Snow,340,2013-01-25 13:34:00
7:54 AM,-2.2,-7.6,78,29.94,7.0,NNW,8.1,-,N/A,Snow,Light Snow,340,2013-01-25 13:54:00
8:14 AM,-2.2,-7.6,78,29.95,7.0,NNW,6.9,-,N/A,Snow,Light Snow,330,2013-01-25 14:14:00
8:34 AM,-4.0,-7.6,85,29.97,10.0,NW,6.9,-,N/A,,Clear,320,2013-01-25 14:34:00
8:54 AM,-4.0,-9.4,78,29.99,10.0,NW,8.1,-,N/A,,Clear,320,2013-01-25 14:54:00
9:14 AM,-4.0,-9.4,78,29.99,10.0,NNW,5.8,-,N/A,Snow,Light Snow,330,2013-01-25 15:14:00
9:34 AM,-2.2,-7.6,78,30.01,10.0,NW,9.2,-,N/A,,Clear,310,2013-01-25 15:34:00
9:54 AM,-2.2,-7.6,78,30.02,10.0,NW,6.9,-,N/A,,Clear,320,2013-01-25 15:54:00
10:14 AM,-2.2,-7.6,78,30.04,10.0,NW,8.1,-,N/A,,Clear,320,2013-01-25 16:14:00
10:34 AM,-0.4,-7.6,72,30.05,10.0,NW,10.4,-,N/A,,Clear,320,2013-01-25 16:34:00
10:54 AM,1.4,-5.8,72,30.07,0.8,NNW,12.7,17.3,N/A,,Haze,340,2013-01-25 16:54:00
11:14 AM,1.4,-5.8,72,30.07,0.2,NNW,11.5,16.1,N/A,Snow,Light Snow,340,2013-01-25 17:14:00
11:34 AM,1.4,-5.8,72,30.08,0.2,NNW,11.5,-,N/A,Snow,Light Snow,340,2013-01-25 17:34:00
11:54 AM,3.2,-5.8,66,30.09,0.2,NNW,8.1,-,N/A,Snow,Light Snow,340,2013-01-25 17:54:00
12:14 PM,3.2,-5.8,66,30.10,10.0,NW,6.9,-,N/A,,Clear,320,2013-01-25 18:14:00
12:34 PM,3.2,-5.8,66,30.11,10.0,NW,9.2,-,N/A,,Clear,310,2013-01-25 18:34:00
12:54 PM,3.2,-5.8,66,30.12,7.0,NNW,8.1,-,N/A,,Clear,330,2013-01-25 18:54:00
1:14 PM,3.2,-5.8,66,30.12,7.0,NW,9.2,-,N/A,,Clear,310,2013-01-25 19:14:00
1:34 PM,3.2,-5.8,66,30.13,10.0,West,8.1,-,N/A,,Clear,280,2013-01-25 19:34:00
1:54 PM,3.2,-5.8,66,30.12,10.0,WNW,6.9,-,N/A,,Clear,300,2013-01-25 19:54:00
2:14 PM,3.2,-5.8,66,30.13,10.0,WNW,6.9,-,N/A,,Clear,300,2013-01-25 20:14:00
2:34 PM,3.2,-5.8,66,30.14,10.0,WNW,6.9,-,N/A,,Clear,290,2013-01-25 20:34:00
2:54 PM,3.2,-7.6,61,30.14,10.0,WNW,9.2,-,N/A,,Clear,290,2013-01-25 20:54:00
3:14 PM,3.2,-7.6,61,30.15,7.0,WNW,8.1,-,N/A,,Clear,300,2013-01-25 21:14:00
3:34 PM,3.2,-7.6,61,30.16,10.0,WNW,8.1,-,N/A,,Clear,290,2013-01-25 21:34:00
3:54 PM,3.2,-7.6,61,30.17,10.0,West,8.1,-,N/A,,Clear,280,2013-01-25 21:54:00
4:14 PM,3.2,-7.6,61,30.17,10.0,WNW,6.9,-,N/A,,Clear,300,2013-01-25 22:14:00
4:34 PM,1.4,-7.6,66,30.18,10.0,WNW,4.6,-,N/A,,Clear,290,2013-01-25 22:34:00
4:54 PM,1.4,-9.4,61,30.19,10.0,WNW,6.9,-,N/A,,Clear,290,2013-01-25 22:54:00
5:14 PM,-0.4,-9.4,66,30.21,10.0,WNW,4.6,-,N/A,,Clear,290,2013-01-25 23:14:00
5:34 PM,-2.2,-11.2,66,30.21,10.0,WSW,3.5,-,N/A,,Clear,240,2013-01-25 23:34:00
5:54 PM,-5.8,-14.8,65,30.21,10.0,WSW,4.6,-,N/A,,Clear,250,2013-01-25 23:54:00
6:14 PM,-7.6,-14.8,71,30.21,10.0,West,4.6,-,N/A,,Clear,270,2013-01-26 00:14:00
6:34 PM,-7.6,-14.8,71,30.22,10.0,West,5.8,-,N/A,,Clear,260,2013-01-26 00:34:00
6:54 PM,-5.8,-13.0,71,30.22,10.0,WNW,5.8,-,N/A,,Clear,300,2013-01-26 00:54:00
7:14 PM,-5.8,-13.0,71,30.22,10.0,WNW,4.6,-,N/A,,Clear,300,2013-01-26 01:14:00
7:34 PM,-5.8,-13.0,71,30.22,10.0,WNW,4.6,-,N/A,,Clear,290,2013-01-26 01:34:00
7:53 PM,-7.6,-13.0,77,30.22,10.0,WNW,5.8,-,N/A,,Clear,290,2013-01-26 01:53:00
8:14 PM,-7.6,-14.8,71,30.22,10.0,WNW,4.6,-,N/A,,Clear,290,2013-01-26 02:14:00
8:34 PM,-14.8,-20.2,77,30.23,10.0,Calm,Calm,-,N/A,,Clear,0,2013-01-26 02:34:00
8:54 PM,-14.8,-20.2,77,30.24,10.0,West,3.5,-,N/A,,Clear,280,2013-01-26 02:54:00
9:14 PM,-14.8,-20.2,77,30.24,10.0,Calm,Calm,-,N/A,,Clear,0,2013-01-26 03:14:00
9:34 PM,-16.6,-22.0,76,30.25,10.0,Calm,Calm,-,N/A,,Clear,0,2013-01-26 03:34:00
9:54 PM,-18.4,-23.8,76,30.25,10.0,Calm,Calm,-,N/A,,Clear,0,2013-01-26 03:54:00
10:14 PM,-18.4,-25.6,70,30.25,10.0,Calm,Calm,-,N/A,,Clear,0,2013-01-26 04:14:00
10:53 PM,-18.4,-25.6,70,30.26,10.0,SW,3.5,-,N/A,,Clear,230,2013-01-26 04:53:00
11:14 PM,-20.2,-27.4,69,30.27,10.0,Calm,Calm,-,N/A,,Clear,0,2013-01-26 05:14:00
11:34 PM,-20.2,-27.4,69,30.27,10.0,Calm,Calm,-,N/A,,Clear,0,2013-01-26 05:34:00
11:53 PM,-20.2,-27.4,69,30.27,10.0,Calm,Calm,-,N/A,,Clear,0,2013-01-26 05:53:00